createdAt,value
2019-03-18T00:02:02.082Z,91.48
2019-03-18T00:04:33.498Z,92.55
2019-03-18T00:07:04.976Z,91.92
2019-03-18T00:09:39.158Z,92.03
2019-03-18T00:12:13.111Z,92.13
2019-03-18T00:14:45.152Z,92.53
2019-03-18T00:17:18.176Z,91.55
2019-03-18T00:19:50.059Z,91.37
2019-03-18T00:22:24.014Z,90.56
2019-03-18T00:24:55.837Z,90.56
2019-03-18T00:27:29.333Z,90.67
2019-03-18T00:30:02.231Z,90.35
2019-03-18T00:32:35.330Z,91.14
2019-03-18T00:35:08.565Z,90.86
2019-03-18T00:37:41.146Z,90.80
2019-03-18T00:40:14.128Z,91.76
2019-03-18T00:42:47.103Z,91.42
2019-03-18T00:45:20.407Z,91.39
2019-03-18T00:47:54.443Z,91.32
2019-03-18T00:50:26.458Z,91.22
2019-03-18T00:52:59.206Z,90.09
2019-03-18T00:55:32.546Z,90.62
2019-03-18T00:58:05.292Z,90.79
2019-03-18T01:00:39.488Z,90.53
2019-03-18T01:03:13.183Z,89.76
2019-03-18T01:05:45.448Z,90.60
2019-03-18T01:08:19.365Z,90.54
2019-03-18T01:10:51.618Z,89.79
2019-03-18T01:13:23.394Z,89.90
2019-03-18T01:15:56.068Z,89.70
2019-03-18T01:18:29.584Z,90.13
2019-03-18T01:21:02.465Z,88.85
2019-03-18T01:23:36.532Z,89.12
2019-03-18T01:26:08.483Z,89.16
2019-03-18T01:28:44.000Z,88.51
2019-03-18T01:31:16.022Z,89.49
2019-03-18T01:33:47.616Z,88.66
2019-03-18T01:36:19.775Z,88.51
2019-03-18T01:38:51.053Z,88.15
2019-03-18T01:41:24.671Z,89.01
2019-03-18T01:43:56.107Z,88.44
2019-03-18T01:46:29.724Z,87.90
2019-03-18T01:49:03.423Z,88.54
2019-03-18T01:51:36.607Z,88.34
2019-03-18T01:54:11.564Z,87.84
2019-03-18T01:56:45.621Z,88.08
2019-03-18T01:59:17.778Z,87.65
2019-03-18T02:01:51.847Z,88.02
2019-03-18T02:04:25.388Z,88.58
2019-03-18T02:06:56.755Z,87.72
2019-03-18T02:09:29.690Z,88.05
2019-03-18T02:12:04.386Z,88.54
2019-03-18T02:14:35.839Z,88.36
2019-03-18T02:17:10.434Z,88.05
2019-03-18T02:19:42.751Z,87.88
2019-03-18T02:22:16.865Z,88.20
2019-03-18T02:24:50.704Z,88.63
2019-03-18T02:27:22.895Z,87.31
2019-03-18T02:29:56.030Z,87.45
2019-03-18T02:32:30.058Z,87.04
2019-03-18T02:35:03.096Z,86.73
2019-03-18T02:37:38.541Z,85.89
2019-03-18T02:40:10.852Z,86.18
2019-03-18T02:42:44.957Z,86.65
2019-03-18T02:45:18.774Z,86.30
2019-03-18T02:47:51.000Z,86.66
2019-03-18T02:50:23.717Z,86.45
2019-03-18T02:52:56.154Z,86.24
2019-03-18T02:55:27.775Z,86.15
2019-03-18T02:57:59.836Z,86.10
2019-03-18T03:00:33.009Z,86.12
2019-03-18T03:03:06.833Z,85.88
2019-03-18T03:05:39.944Z,85.22
2019-03-18T03:08:12.961Z,83.71
2019-03-18T03:10:44.270Z,84.09
2019-03-18T03:13:15.971Z,83.25
2019-03-18T03:15:49.060Z,83.09
2019-03-18T03:18:20.955Z,82.62
2019-03-18T03:20:55.030Z,83.77
2019-03-18T03:23:26.954Z,83.37
2019-03-18T03:26:00.242Z,83.68
2019-03-18T03:28:33.145Z,83.58
2019-03-18T03:31:06.291Z,83.00
2019-03-18T03:33:39.751Z,83.18
2019-03-18T03:36:12.086Z,82.78
2019-03-18T03:38:44.165Z,82.32
2019-03-18T03:41:18.291Z,81.83
2019-03-18T03:43:53.249Z,82.58
2019-03-18T03:46:41.896Z,82.52
2019-03-18T03:49:02.215Z,82.81
2019-03-18T03:51:35.280Z,81.91
2019-03-18T03:54:08.229Z,82.69
2019-03-18T03:56:41.070Z,82.57
2019-03-18T03:59:14.743Z,83.09
2019-03-18T04:01:48.223Z,83.12
2019-03-18T04:04:20.253Z,83.20
2019-03-18T04:06:53.228Z,82.31
2019-03-18T04:09:27.360Z,83.37
2019-03-18T04:11:59.326Z,83.33
2019-03-18T04:14:31.303Z,83.28
2019-03-18T04:17:05.268Z,83.23
2019-03-18T04:19:40.696Z,83.17
2019-03-18T04:22:14.486Z,83.16
2019-03-18T04:24:47.340Z,83.08
2019-03-18T04:27:20.449Z,82.76
2019-03-18T04:29:52.370Z,81.51
2019-03-18T04:32:26.510Z,81.98
2019-03-18T04:34:59.254Z,81.71
2019-03-18T04:37:32.421Z,81.07
2019-03-18T04:40:05.802Z,80.30
2019-03-18T04:42:38.368Z,81.13
2019-03-18T04:45:11.736Z,80.59
2019-03-18T04:47:43.309Z,78.68
2019-03-18T04:50:16.977Z,78.94
2019-03-18T04:52:50.498Z,79.14
2019-03-18T04:55:23.372Z,78.66
2019-03-18T04:57:56.452Z,78.52
2019-03-18T05:00:29.486Z,79.05
2019-03-18T05:03:02.478Z,78.03
2019-03-18T05:05:34.395Z,77.10
2019-03-18T05:08:06.476Z,77.50
2019-03-18T05:10:38.881Z,77.92
2019-03-18T05:13:11.655Z,77.98
2019-03-18T05:15:43.148Z,76.27
2019-03-18T05:18:17.573Z,76.57
2019-03-18T05:20:51.694Z,76.83
2019-03-18T05:23:24.488Z,76.17
2019-03-18T05:25:56.334Z,76.71
2019-03-18T05:28:30.394Z,76.69
2019-03-18T05:31:03.650Z,75.35
2019-03-18T05:33:35.023Z,75.45
2019-03-18T05:36:08.608Z,75.48
2019-03-18T05:38:42.209Z,76.02
2019-03-18T05:41:14.739Z,76.39
2019-03-18T05:43:46.036Z,76.13
2019-03-18T05:46:17.828Z,76.11
2019-03-18T05:48:49.923Z,75.67
2019-03-18T05:51:22.146Z,75.87
2019-03-18T05:53:53.761Z,77.02
2019-03-18T05:56:28.436Z,75.78
2019-03-18T05:58:59.840Z,75.18
2019-03-18T06:01:32.609Z,75.36
2019-03-18T06:04:04.692Z,75.79
2019-03-18T06:06:38.601Z,75.89
2019-03-18T06:09:11.776Z,76.21
2019-03-18T06:11:45.967Z,75.70
2019-03-18T06:14:17.775Z,75.98
2019-03-18T06:16:50.019Z,75.71
2019-03-18T06:19:23.958Z,76.33
2019-03-18T06:21:56.590Z,76.58
2019-03-18T06:24:32.434Z,75.78
2019-03-18T06:27:06.037Z,75.78
2019-03-18T06:29:37.330Z,76.25
2019-03-18T06:32:08.893Z,75.49
2019-03-18T06:34:42.179Z,75.82
2019-03-18T06:37:15.370Z,75.14
2019-03-18T06:39:48.007Z,75.92
2019-03-18T06:42:21.510Z,76.30
2019-03-18T06:44:54.865Z,76.45
2019-03-18T06:47:27.426Z,75.91
2019-03-18T06:49:59.771Z,76.33
2019-03-18T06:52:33.304Z,75.80
2019-03-18T06:55:06.433Z,75.57
2019-03-18T06:57:38.076Z,74.66
2019-03-18T07:00:10.323Z,75.21
2019-03-18T07:02:42.392Z,75.36
2019-03-18T07:05:15.194Z,75.83
2019-03-18T07:07:48.231Z,75.65
2019-03-18T07:10:21.095Z,75.66
2019-03-18T07:12:54.035Z,75.49
2019-03-18T07:15:28.187Z,75.05
2019-03-18T07:18:00.240Z,75.11
2019-03-18T07:20:32.258Z,74.49
2019-03-18T07:23:06.255Z,75.84
2019-03-18T07:25:39.012Z,75.09
2019-03-18T07:28:11.081Z,75.76
2019-03-18T07:30:43.275Z,74.86
2019-03-18T07:33:15.202Z,74.78
2019-03-18T07:35:46.911Z,74.67
2019-03-18T07:38:23.070Z,74.58
2019-03-18T07:40:57.980Z,74.32
2019-03-18T07:43:30.105Z,75.01
2019-03-18T07:46:03.060Z,75.57
2019-03-18T07:48:36.412Z,75.45
2019-03-18T07:51:10.354Z,75.73
2019-03-18T07:53:44.047Z,75.03
2019-03-18T07:56:18.288Z,74.81
2019-03-18T07:58:50.295Z,73.83
2019-03-18T08:01:23.268Z,74.41
2019-03-18T08:03:55.275Z,74.12
2019-03-18T08:06:27.295Z,74.36
2019-03-18T08:09:00.902Z,74.85
2019-03-18T08:11:33.373Z,74.41
2019-03-18T08:14:06.406Z,74.52
2019-03-18T08:16:40.559Z,73.31
2019-03-18T08:19:13.024Z,73.63
2019-03-18T08:21:46.439Z,74.83
2019-03-18T08:24:20.073Z,75.23
2019-03-18T08:26:52.746Z,74.30
2019-03-18T08:29:24.486Z,73.75
2019-03-18T08:31:56.663Z,73.11
2019-03-18T08:34:30.590Z,72.98
2019-03-18T08:37:04.693Z,74.10
2019-03-18T08:39:36.492Z,73.17
2019-03-18T08:42:09.593Z,73.56
2019-03-18T08:44:43.633Z,73.64
2019-03-18T08:47:15.653Z,72.66
2019-03-18T08:49:48.622Z,73.97
2019-03-18T08:52:21.935Z,73.05
2019-03-18T08:54:55.637Z,73.39
2019-03-18T08:57:28.916Z,73.41
2019-03-18T09:00:03.035Z,72.94
2019-03-18T09:02:36.743Z,73.05
2019-03-18T09:05:09.052Z,73.19
2019-03-18T09:07:42.848Z,72.57
2019-03-18T09:10:15.651Z,72.80
2019-03-18T09:12:47.784Z,72.80
2019-03-18T09:15:20.662Z,73.24
2019-03-18T09:17:52.968Z,73.09
2019-03-18T09:20:27.162Z,73.37
2019-03-18T09:23:01.628Z,74.24
2019-03-18T09:25:36.031Z,73.96
2019-03-18T09:28:08.977Z,73.45
2019-03-18T09:30:41.829Z,72.00
2019-03-18T09:33:15.113Z,72.16
2019-03-18T09:35:48.062Z,72.31
2019-03-18T09:38:21.953Z,71.33
2019-03-18T09:40:54.699Z,71.06
2019-03-18T09:43:27.882Z,70.20
2019-03-18T09:46:01.869Z,71.13
2019-03-18T09:48:33.829Z,69.86
2019-03-18T09:51:09.521Z,69.69
2019-03-18T09:53:42.517Z,69.98
2019-03-18T09:56:24.315Z,68.76
2019-03-18T09:58:56.181Z,69.33
2019-03-18T10:01:27.883Z,70.11
2019-03-18T10:04:00.017Z,69.20
2019-03-18T10:06:32.902Z,68.40
2019-03-18T10:09:07.348Z,69.03
2019-03-18T10:11:38.884Z,69.10
2019-03-18T10:14:12.762Z,69.31
2019-03-18T10:16:44.990Z,69.05
2019-03-18T10:19:18.013Z,68.61
2019-03-18T10:21:51.104Z,67.74
2019-03-18T10:24:23.848Z,68.08
2019-03-18T10:26:58.364Z,66.01
2019-03-18T10:29:35.598Z,67.72
2019-03-18T10:32:08.883Z,66.52
2019-03-18T10:34:44.743Z,65.91
2019-03-18T10:37:18.098Z,64.90
2019-03-18T10:40:10.287Z,65.22
2019-03-18T10:42:43.156Z,64.79
2019-03-18T10:45:15.637Z,66.54
2019-03-18T10:47:49.208Z,66.05
2019-03-18T10:50:23.919Z,64.82
2019-03-18T10:52:59.119Z,64.10
2019-03-18T10:55:32.061Z,63.31
2019-03-18T10:58:03.617Z,62.87
2019-03-18T11:00:36.427Z,61.90
2019-03-18T11:03:11.082Z,61.90
2019-03-18T11:05:44.184Z,59.86
2019-03-18T11:08:16.416Z,61.26
2019-03-18T11:10:48.305Z,61.90
2019-03-18T11:13:22.250Z,63.81
2019-03-18T11:15:54.475Z,60.94
2019-03-18T11:18:27.252Z,60.86
2019-03-18T11:21:00.587Z,60.12
2019-03-18T11:23:36.302Z,60.65
2019-03-18T11:26:10.267Z,62.68
2019-03-18T11:28:44.099Z,61.99
2019-03-18T11:31:16.637Z,62.55
2019-03-18T11:33:48.366Z,62.07
2019-03-18T11:36:21.587Z,62.11
2019-03-18T11:38:55.279Z,61.71
2019-03-18T11:41:27.508Z,62.63
2019-03-18T11:44:05.979Z,61.19
2019-03-18T11:46:40.712Z,61.71
2019-03-18T11:49:15.243Z,60.68
2019-03-18T11:51:50.791Z,61.32
2019-03-18T11:54:22.544Z,61.29
2019-03-18T11:56:55.525Z,60.46
2019-03-18T11:59:30.349Z,62.54
2019-03-18T12:02:04.384Z,61.41
2019-03-18T12:04:37.495Z,59.60
2019-03-18T12:07:09.484Z,60.31
2019-03-18T12:09:42.507Z,61.06
2019-03-18T12:12:15.533Z,60.26
2019-03-18T12:15:08.823Z,60.31
2019-03-18T12:17:42.429Z,62.63
2019-03-18T12:20:24.922Z,65.30
2019-03-18T12:22:57.422Z,65.94
2019-03-18T12:25:33.486Z,66.89
2019-03-18T12:28:06.692Z,67.82
2019-03-18T12:30:40.155Z,68.60
2019-03-18T12:33:11.604Z,67.72
2019-03-18T12:35:47.248Z,68.50
2019-03-18T12:38:20.347Z,68.91
2019-03-18T12:40:52.649Z,69.66
2019-03-18T12:43:24.766Z,70.90
2019-03-18T12:45:56.927Z,71.70
2019-03-18T12:48:32.389Z,73.59
2019-03-18T12:51:10.067Z,74.69
2019-03-18T12:53:42.824Z,75.92
2019-03-18T12:56:17.490Z,77.56
2019-03-18T12:58:53.542Z,78.79
2019-03-18T13:01:30.108Z,79.97
2019-03-18T13:04:04.508Z,78.76
2019-03-18T13:06:38.718Z,79.25
2019-03-18T13:09:12.760Z,79.16
2019-03-18T13:11:50.323Z,78.01
2019-03-18T13:14:22.706Z,79.53
2019-03-18T13:16:54.683Z,78.38
2019-03-18T13:19:28.133Z,77.57
2019-03-18T13:22:03.385Z,77.46
2019-03-18T13:24:39.566Z,76.83
2019-03-18T13:27:13.283Z,77.23
2019-03-18T13:29:45.978Z,76.79
2019-03-18T13:32:18.813Z,76.99
2019-03-18T13:34:52.352Z,78.15
2019-03-18T13:37:26.333Z,78.71
2019-03-18T13:39:57.940Z,78.47
2019-03-18T13:42:32.018Z,79.22
2019-03-18T13:45:05.141Z,78.63
2019-03-18T13:47:39.275Z,77.64
2019-03-18T13:50:13.595Z,78.01
2019-03-18T13:52:47.925Z,77.62
2019-03-18T13:55:22.041Z,77.43
2019-03-18T13:57:55.390Z,78.44
2019-03-18T14:00:30.872Z,77.25
2019-03-18T14:03:05.966Z,77.63
2019-03-18T14:05:41.377Z,77.45
2019-03-18T14:08:13.407Z,76.69
2019-03-18T14:10:44.874Z,77.37
2019-03-18T14:13:18.807Z,77.39
2019-03-18T14:15:51.225Z,78.38
2019-03-18T14:18:23.976Z,77.19
2019-03-18T14:20:55.355Z,77.70
2019-03-18T14:23:27.126Z,76.96
2019-03-18T14:25:59.983Z,77.15
2019-03-18T14:28:33.007Z,76.63
2019-03-18T14:31:07.067Z,77.20
2019-03-18T14:33:39.084Z,76.23
2019-03-18T14:36:12.142Z,74.10
2019-03-18T14:38:44.232Z,73.55
2019-03-18T14:41:18.180Z,73.40
2019-03-18T14:43:50.437Z,71.42
2019-03-18T14:46:22.387Z,71.90
2019-03-18T14:48:56.141Z,71.96
2019-03-18T14:51:30.075Z,70.16
2019-03-18T14:54:03.333Z,69.44
2019-03-18T14:56:36.145Z,69.08
2019-03-18T14:59:09.790Z,68.83
2019-03-18T15:01:43.124Z,68.26
2019-03-18T15:04:16.193Z,69.57
2019-03-18T15:06:50.628Z,71.07
2019-03-18T15:09:23.449Z,69.74
2019-03-18T15:11:56.675Z,70.06
2019-03-18T15:14:30.185Z,70.10
2019-03-18T15:17:01.494Z,69.95
2019-03-18T15:19:34.635Z,70.17
2019-03-18T15:22:06.090Z,71.13
2019-03-18T15:24:40.202Z,70.39
2019-03-18T15:27:12.472Z,70.45
2019-03-18T15:29:46.377Z,69.55
2019-03-18T15:32:19.218Z,69.55
2019-03-18T15:34:52.337Z,68.90
2019-03-18T15:37:25.467Z,69.54
2019-03-18T15:39:58.259Z,69.44
2019-03-18T15:42:32.894Z,68.83
2019-03-18T15:45:04.718Z,69.15
2019-03-18T15:47:36.535Z,69.68
2019-03-18T15:50:12.974Z,69.94
2019-03-18T15:52:45.458Z,69.78
2019-03-18T15:55:18.651Z,69.30
2019-03-18T15:57:50.686Z,69.53
2019-03-18T16:00:22.856Z,70.41
2019-03-18T16:02:54.437Z,70.24
2019-03-18T16:05:28.252Z,70.30
2019-03-18T16:08:00.720Z,71.49
2019-03-18T16:10:32.893Z,70.32
2019-03-18T16:13:08.952Z,70.67
2019-03-18T16:15:40.784Z,70.17
2019-03-18T16:18:12.751Z,69.91
2019-03-18T16:20:45.526Z,69.61
2019-03-18T16:23:18.596Z,70.28
2019-03-18T16:25:51.635Z,70.29
2019-03-18T16:28:28.408Z,70.03
2019-03-18T16:31:00.614Z,71.27
2019-03-18T16:33:35.379Z,70.37
2019-03-18T16:36:11.376Z,71.28
2019-03-18T16:38:45.898Z,71.78
2019-03-18T16:41:18.992Z,72.70
2019-03-18T16:43:50.561Z,73.02
2019-03-18T16:46:26.414Z,73.26
2019-03-18T16:48:57.817Z,73.86
2019-03-18T16:51:30.902Z,71.94
2019-03-18T16:54:02.683Z,72.29
2019-03-18T16:56:38.657Z,73.52
2019-03-18T16:59:17.438Z,73.53
2019-03-18T17:01:50.739Z,73.30
2019-03-18T17:04:24.819Z,74.15
2019-03-18T17:06:57.507Z,74.72
2019-03-18T17:09:30.776Z,73.05
2019-03-18T17:12:06.939Z,71.47
2019-03-18T17:14:41.875Z,72.01
2019-03-18T17:17:14.990Z,72.03
2019-03-18T17:19:49.947Z,72.43
2019-03-18T17:22:22.138Z,73.34
2019-03-18T17:24:54.951Z,73.10
2019-03-18T17:27:28.410Z,73.68
2019-03-18T17:30:02.916Z,74.33
2019-03-18T17:32:38.485Z,74.48
2019-03-18T17:35:13.326Z,74.80
2019-03-18T17:37:46.944Z,75.07
2019-03-18T17:40:24.882Z,76.06
2019-03-18T17:42:57.538Z,76.09
2019-03-18T17:45:30.778Z,76.85
2019-03-18T17:48:05.925Z,77.09
2019-03-18T17:50:39.979Z,77.81
2019-03-18T17:53:17.782Z,78.42
2019-03-18T17:55:50.002Z,79.04
2019-03-18T17:58:22.076Z,79.82
2019-03-18T18:00:55.131Z,79.44
2019-03-18T18:03:31.012Z,80.20
2019-03-18T18:06:04.266Z,80.82
2019-03-18T18:08:39.713Z,81.04
2019-03-18T18:11:11.124Z,81.19
2019-03-18T18:13:44.377Z,81.76
2019-03-18T18:16:16.163Z,82.17
2019-03-18T18:18:50.238Z,82.64
2019-03-18T18:21:22.913Z,82.92
2019-03-18T18:23:55.156Z,83.13
2019-03-18T18:26:28.103Z,83.48
2019-03-18T18:29:02.812Z,83.65
2019-03-18T18:31:37.237Z,83.85
2019-03-18T18:34:12.015Z,84.04
2019-03-18T18:36:45.368Z,84.10
2019-03-18T18:39:19.298Z,84.21
2019-03-18T18:41:53.106Z,84.32
2019-03-18T18:44:25.345Z,84.38
2019-03-18T18:46:59.185Z,84.97
2019-03-18T18:49:30.666Z,84.97
2019-03-18T18:52:04.269Z,85.55
2019-03-18T18:54:37.780Z,85.50
2019-03-18T18:57:10.365Z,85.77
2019-03-18T18:59:42.292Z,85.94
2019-03-18T19:02:16.307Z,86.33
2019-03-18T19:04:49.374Z,86.73
2019-03-18T19:07:22.271Z,87.24
2019-03-18T19:09:55.416Z,87.49
2019-03-18T19:12:27.401Z,87.71
2019-03-18T19:15:00.342Z,88.12
2019-03-18T19:17:31.746Z,88.54
2019-03-18T19:20:05.550Z,88.86
2019-03-18T19:22:38.452Z,89.29
2019-03-18T19:25:11.683Z,89.61
2019-03-18T19:27:43.325Z,89.71
2019-03-18T19:30:17.835Z,90.07
2019-03-18T19:32:51.652Z,90.64
2019-03-18T19:35:24.462Z,91.08
2019-03-18T19:37:57.551Z,91.32
2019-03-18T19:40:31.405Z,91.57
2019-03-18T19:43:03.548Z,92.08
2019-03-18T19:45:36.621Z,92.47
2019-03-18T19:48:08.489Z,92.80
2019-03-18T19:50:40.646Z,92.96
2019-03-18T19:53:12.612Z,93.11
2019-03-18T19:55:45.645Z,92.94
2019-03-18T19:58:18.776Z,92.80
2019-03-18T20:00:51.563Z,92.82
2019-03-18T20:03:24.496Z,93.10
2019-03-18T20:05:57.730Z,93.35
2019-03-18T20:08:30.874Z,93.84
2019-03-18T20:11:03.501Z,94.00
2019-03-18T20:13:35.811Z,94.07
2019-03-18T20:16:09.599Z,94.00
2019-03-18T20:18:41.753Z,94.23
2019-03-18T20:21:15.620Z,94.05
2019-03-18T20:24:00.076Z,94.11
2019-03-18T20:26:22.857Z,94.01
2019-03-18T20:28:56.904Z,94.04
2019-03-18T20:31:30.676Z,93.99
2019-03-18T20:34:03.605Z,93.91
2019-03-18T20:36:36.637Z,93.87
2019-03-18T20:39:09.072Z,93.88
2019-03-18T20:41:42.820Z,93.98
2019-03-18T20:44:15.751Z,93.99
2019-03-18T20:46:48.780Z,93.72
2019-03-18T20:49:21.781Z,93.62
2019-03-18T20:51:54.726Z,93.78
2019-03-18T20:54:27.683Z,94.05
2019-03-18T20:57:00.801Z,94.29
2019-03-18T20:59:33.869Z,94.09
2019-03-18T21:02:08.156Z,94.09
2019-03-18T21:04:39.881Z,94.29
2019-03-18T21:07:16.932Z,94.15
2019-03-18T21:09:51.738Z,94.24
2019-03-18T21:12:24.840Z,94.25
2019-03-18T21:14:57.763Z,94.22
2019-03-18T21:17:30.723Z,94.24
2019-03-18T21:20:04.232Z,94.30
2019-03-18T21:22:36.022Z,94.39
2019-03-18T21:25:10.785Z,94.75
2019-03-18T21:27:42.918Z,94.80
2019-03-18T21:30:16.149Z,94.72
2019-03-18T21:32:48.066Z,94.92
2019-03-18T21:35:22.194Z,94.86
2019-03-18T21:37:53.971Z,94.76
2019-03-18T21:40:29.723Z,94.96
2019-03-18T21:43:04.149Z,95.15
2019-03-18T21:45:35.957Z,95.25
2019-03-18T21:48:11.595Z,95.37
2019-03-18T21:50:43.061Z,95.38
2019-03-18T21:53:14.537Z,95.44
2019-03-18T21:55:47.039Z,95.42
2019-03-18T21:58:19.306Z,95.38
2019-03-18T22:00:51.969Z,95.46
2019-03-18T22:03:25.080Z,95.62
2019-03-18T22:05:57.757Z,95.76
2019-03-18T22:08:31.038Z,95.76
2019-03-18T22:11:04.549Z,95.86
2019-03-18T22:13:38.804Z,95.93
2019-03-18T22:16:13.125Z,96.13
2019-03-18T22:18:46.310Z,96.37
2019-03-18T22:21:19.233Z,96.49
2019-03-18T22:23:52.338Z,96.62
2019-03-18T22:26:26.344Z,96.85
2019-03-18T22:28:59.733Z,96.95
2019-03-18T22:31:31.174Z,96.87
2019-03-18T22:34:02.794Z,96.81
2019-03-18T22:36:36.870Z,96.72
2019-03-18T22:39:10.726Z,96.72
2019-03-18T22:41:44.699Z,96.68
2019-03-18T22:44:16.334Z,96.60
2019-03-18T22:46:50.231Z,96.69
2019-03-18T22:49:22.413Z,96.87
2019-03-18T22:51:53.944Z,97.04
2019-03-18T22:54:26.347Z,97.15
2019-03-18T22:56:57.750Z,97.18
2019-03-18T22:59:31.413Z,97.21
2019-03-18T23:02:04.688Z,97.17
2019-03-18T23:04:38.951Z,97.09
2019-03-18T23:07:10.729Z,97.11
2019-03-18T23:09:45.203Z,97.04
2019-03-18T23:12:17.478Z,97.02
2019-03-18T23:14:50.547Z,97.04
2019-03-18T23:17:23.350Z,97.01
2019-03-18T23:19:55.463Z,97.09
2019-03-18T23:22:29.441Z,97.25
2019-03-18T23:25:06.934Z,97.29
2019-03-18T23:27:34.725Z,97.07
2019-03-18T23:30:08.205Z,96.96
2019-03-18T23:32:40.526Z,96.79
2019-03-18T23:35:14.130Z,96.80
2019-03-18T23:37:46.389Z,96.84
2019-03-18T23:40:19.382Z,97.03
2019-03-18T23:42:51.323Z,97.13
2019-03-18T23:45:24.427Z,97.23
2019-03-18T23:47:56.704Z,97.32
2019-03-18T23:50:28.546Z,97.41
2019-03-18T23:53:01.652Z,97.41
2019-03-18T23:55:34.657Z,97.38
2019-03-18T23:58:07.504Z,96.96
